Marion, IL (62959)

11:24 AM CDT on March 28, 2015 (GMT -0500)
WB0VTM - HAM RADIO | | Change Station
CLOSE
Current Station
Personal Weather Station
Location: Marion, IL
Elevation: 492 ft
Nearby Weather Stations

Elev 492 ft 37.72 °N, 88.95 °W | Updated 10 minutes ago

Partly Cloudy
Partly Cloudy
38.5 °F
Feels Like 38 °F
N
0.0
Wind Variable Wind from NE

Today
High -- | Low -- °F
--% Chance of Precip.
Yesterday
High -- | Low -- °F
Precip. -- in
6:47 AM 7:14 PM
Waxing Gibbous, 63% visible
Pressure 30.35 in
Visibility 20.0 miles
Clouds Few 3500 ft
Mostly Cloudy 25000 ft
Windchill 38 °F
Dew Point 24 °F
Humidity 55%
Rainfall 0.00 in
Snow Depth Not available.
UV 3 out of 12
Pollen 8.10 out of 12
Air Quality Not available.
Flu Activity Not available.
METAR KMWA 281554Z 34007KT 20SM FEW035 BKN250 01/M07 A3035

More Conditions Fewer Conditions

Pressure 30.35 in
Visibility 20.0 miles
Clouds Few 3500 ft
Mostly Cloudy 25000 ft
Windchill 38 °F
Dew Point 24 °F
Humidity 55%
Rainfall 0.00 in
Snow Depth Not available.
UV 3 out of 12
Pollen 8.10 out of 12
Air Quality Not available.
Flu Activity Not available.
METAR KMWA 281554Z 34007KT 20SM FEW035 BKN250 01/M07 A3035

More Conditions Fewer Conditions

10-Day Weather Forecast

Almanac

Astronomy

Mar. 28, 2015 Rise Set
Actual Time
Civil Twilight
Nautical Twilight
Astronomical Twilight
Moon
Length of Visible Light
Length of Day
Tomorrow will be .
, % of the Moon is Illuminated

Today's Extremes

State Highs State Lows

Community

WunderPhotos

Upload Photos

1,809,020 photos uploaded!

WunderBlogs® & News

Nearby

Air Quality

  Air Quality AQ Index Pollutant
Not available.

Snow Depth

Station Depth Elevation

Earthquake Activity

City Distance Mag. Time & Date
Minimum magnitude displayed is 2.5.

Coastal Water Temperatures

Place Temperature

Stations

Nearby Weather Stations

Station Location Temp. Windchill Dew Point Humidity Wind Precip. Elev Updated Type